sensor_id;sensor_type;location;lat;lon;timestamp;pressure;altitude;pressure_sealevel;temperature;humidity
26839;BME280;40088;51.214;6.786;2023-03-17T00:08:26;100685.44;;;16.97;49.32
26839;BME280;40088;51.214;6.786;2023-03-17T00:18:27;100696.03;;;17.00;49.22
26839;BME280;40088;51.214;6.786;2023-03-17T00:28:30;100713.59;;;16.99;49.22
26839;BME280;40088;51.214;6.786;2023-03-17T00:38:30;100715.69;;;16.97;49.08
26839;BME280;40088;51.214;6.786;2023-03-17T00:48:31;100701.94;;;16.97;49.02
26839;BME280;40088;51.214;6.786;2023-03-17T00:58:32;100681.63;;;16.98;49.09
26839;BME280;40088;51.214;6.786;2023-03-17T01:08:33;100696.44;;;16.97;48.88
26839;BME280;40088;51.214;6.786;2023-03-17T01:18:33;100668.06;;;16.97;49.04
26839;BME280;40088;51.214;6.786;2023-03-17T01:28:33;100632.28;;;16.97;48.83
26839;BME280;40088;51.214;6.786;2023-03-17T01:38:34;100585.66;;;16.95;49.12
26839;BME280;40088;51.214;6.786;2023-03-17T01:48:40;100592.22;;;16.94;48.96
26839;BME280;40088;51.214;6.786;2023-03-17T01:58:42;100592.91;;;16.96;49.02
26839;BME280;40088;51.214;6.786;2023-03-17T02:08:43;100587.38;;;16.96;48.89
26839;BME280;40088;51.214;6.786;2023-03-17T02:18:43;100586.53;;;16.96;48.56
26839;BME280;40088;51.214;6.786;2023-03-17T02:28:44;100592.03;;;16.96;49.03
26839;BME280;40088;51.214;6.786;2023-03-17T02:38:45;100601.16;;;16.96;49.00
26839;BME280;40088;51.214;6.786;2023-03-17T02:48:45;100578.47;;;16.94;48.98
26839;BME280;40088;51.214;6.786;2023-03-17T02:58:46;100564.69;;;16.94;48.94
26839;BME280;40088;51.214;6.786;2023-03-17T03:08:46;100574.88;;;16.93;49.04
26839;BME280;40088;51.214;6.786;2023-03-17T03:18:47;100562.16;;;16.92;48.89
26839;BME280;40088;51.214;6.786;2023-03-17T03:28:48;100550.75;;;16.96;48.80
26839;BME280;40088;51.214;6.786;2023-03-17T03:38:48;100557.28;;;16.95;48.81
26839;BME280;40088;51.214;6.786;2023-03-17T03:48:48;100547.34;;;16.93;48.72
26839;BME280;40088;51.214;6.786;2023-03-17T03:58:49;100566.41;;;16.95;49.02
26839;BME280;40088;51.214;6.786;2023-03-17T04:08:50;100585.66;;;16.95;49.01
26839;BME280;40088;51.214;6.786;2023-03-17T04:18:50;100573.63;;;16.96;48.88
26839;BME280;40088;51.214;6.786;2023-03-17T04:28:50;100576.56;;;16.95;48.92
26839;BME280;40088;51.214;6.786;2023-03-17T04:38:51;100577.41;;;16.95;48.96
26839;BME280;40088;51.214;6.786;2023-03-17T04:48:52;100573.81;;;16.95;48.88
26839;BME280;40088;51.214;6.786;2023-03-17T04:58:52;100564.53;;;16.96;48.84
26839;BME280;40088;51.214;6.786;2023-03-17T05:08:52;100576.56;;;16.95;48.98
26839;BME280;40088;51.214;6.786;2023-03-17T05:18:52;100568.28;;;16.95;48.90
26839;BME280;40088;51.214;6.786;2023-03-17T05:28:54;100576.38;;;16.96;48.77
26839;BME280;40088;51.214;6.786;2023-03-17T05:38:54;100591.16;;;16.95;48.87
26839;BME280;40088;51.214;6.786;2023-03-17T05:48:54;100581.69;;;16.98;48.69
26839;BME280;40088;51.214;6.786;2023-03-17T05:58:55;100570.03;;;16.96;48.80
26839;BME280;40088;51.214;6.786;2023-03-17T06:08:55;100568.97;;;16.97;48.80
26839;BME280;40088;51.214;6.786;2023-03-17T06:18:56;100560.88;;;16.95;48.79
26839;BME280;40088;51.214;6.786;2023-03-17T06:28:56;100570.88;;;16.96;48.77
26839;BME280;40088;51.214;6.786;2023-03-17T06:38:57;100555.59;;;16.93;48.76
26839;BME280;40088;51.214;6.786;2023-03-17T06:48:58;100564.31;;;16.97;48.78
26839;BME280;40088;51.214;6.786;2023-03-17T06:58:58;100564.53;;;16.96;48.79
26839;BME280;40088;51.214;6.786;2023-03-17T07:08:58;100579.97;;;16.97;48.83
26839;BME280;40088;51.214;6.786;2023-03-17T07:18:59;100577.41;;;16.95;48.74
26839;BME280;40088;51.214;6.786;2023-03-17T07:29:00;100569.81;;;16.97;48.86
26839;BME280;40088;51.214;6.786;2023-03-17T07:39:01;100568.13;;;16.96;48.70
26839;BME280;40088;51.214;6.786;2023-03-17T07:49:02;100562.78;;;16.95;48.80
26839;BME280;40088;51.214;6.786;2023-03-17T07:59:03;100556.06;;;16.97;48.94
26839;BME280;40088;51.214;6.786;2023-03-17T08:09:03;100561.78;;;16.96;48.68
26839;BME280;40088;51.214;6.786;2023-03-17T08:19:04;100568.97;;;16.97;48.94
26839;BME280;40088;51.214;6.786;2023-03-17T08:29:05;100580.81;;;16.97;48.94
26839;BME280;40088;51.214;6.786;2023-03-17T08:39:07;100585.47;;;16.97;48.89
26839;BME280;40088;51.214;6.786;2023-03-17T08:49:10;100570.88;;;16.96;49.13
26839;BME280;40088;51.214;6.786;2023-03-17T08:59:10;100554.16;;;16.98;49.07
26839;BME280;40088;51.214;6.786;2023-03-17T09:09:11;100556.91;;;16.98;49.02
26839;BME280;40088;51.214;6.786;2023-03-17T09:19:11;100562.41;;;16.98;49.16
26839;BME280;40088;51.214;6.786;2023-03-17T09:29:12;100562.41;;;16.98;49.18
26839;BME280;40088;51.214;6.786;2023-03-17T09:39:12;100543.97;;;16.98;49.26
26839;BME280;40088;51.214;6.786;2023-03-17T09:49:16;100538.47;;;16.98;49.28
26839;BME280;40088;51.214;6.786;2023-03-17T09:59:29;100559.44;;;16.99;49.32
26839;BME280;40088;51.214;6.786;2023-03-17T10:09:38;100549.50;;;16.98;49.33
26839;BME280;40088;51.214;6.786;2023-03-17T10:29:56;100556.91;;;16.98;49.59
26839;BME280;40088;51.214;6.786;2023-03-17T10:39:56;100545.69;;;16.99;49.48
26839;BME280;40088;51.214;6.786;2023-03-17T10:50:24;100529.16;;;16.99;49.72
26839;BME280;40088;51.214;6.786;2023-03-17T11:00:25;100519.00;;;17.00;49.68
26839;BME280;40088;51.214;6.786;2023-03-17T11:10:27;100518.16;;;16.99;49.78
26839;BME280;40088;51.214;6.786;2023-03-17T11:41:12;100475.81;;;17.00;49.75
26839;BME280;40088;51.214;6.786;2023-03-17T11:51:22;100473.94;;;17.01;49.98
26839;BME280;40088;51.214;6.786;2023-03-17T12:01:47;100451.03;;;17.00;49.94
26839;BME280;40088;51.214;6.786;2023-03-17T12:11:50;100448.28;;;17.00;50.14
26839;BME280;40088;51.214;6.786;2023-03-17T12:21:56;100453.78;;;17.00;50.13
26839;BME280;40088;51.214;6.786;2023-03-17T12:32:05;100452.09;;;16.99;50.10
26839;BME280;40088;51.214;6.786;2023-03-17T12:42:14;100431.97;;;16.99;50.23
26839;BME280;40088;51.214;6.786;2023-03-17T13:02:30;100411.88;;;16.98;50.29
26839;BME280;40088;51.214;6.786;2023-03-17T13:23:09;100404.25;;;17.00;50.50
26839;BME280;40088;51.214;6.786;2023-03-17T13:54:06;100384.97;;;17.00;50.52
26839;BME280;40088;51.214;6.786;2023-03-17T14:04:16;100394.09;;;17.01;50.67
26839;BME280;40088;51.214;6.786;2023-03-17T14:14:41;100383.09;;;17.01;50.68
26839;BME280;40088;51.214;6.786;2023-03-17T14:24:44;100361.91;;;17.01;50.46
26839;BME280;40088;51.214;6.786;2023-03-17T14:34:56;100368.28;;;17.02;50.72
26839;BME280;40088;51.214;6.786;2023-03-17T14:45:04;100365.69;;;17.00;50.80
26839;BME280;40088;51.214;6.786;2023-03-17T14:55:05;100363.63;;;17.02;50.85
26839;BME280;40088;51.214;6.786;2023-03-17T15:05:27;100374.63;;;17.02;50.78
26839;BME280;40088;51.214;6.786;2023-03-17T15:15:34;100372.94;;;17.01;50.86
26839;BME280;40088;51.214;6.786;2023-03-17T15:25:40;100352.59;;;17.02;50.86
26839;BME280;40088;51.214;6.786;2023-03-17T15:35:41;100352.59;;;17.02;50.82
26839;BME280;40088;51.214;6.786;2023-03-17T15:45:42;100363.63;;;17.02;50.86
26839;BME280;40088;51.214;6.786;2023-03-17T15:55:43;100371.88;;;17.02;51.11
26839;BME280;40088;51.214;6.786;2023-03-17T16:05:44;100357.25;;;17.02;51.02
26839;BME280;40088;51.214;6.786;2023-03-17T16:15:51;100368.28;;;17.02;51.26
26839;BME280;40088;51.214;6.786;2023-03-17T16:25:52;100368.28;;;17.02;51.32
26839;BME280;40088;51.214;6.786;2023-03-17T16:35:53;100349.84;;;17.02;51.14
26839;BME280;40088;51.214;6.786;2023-03-17T16:45:57;100365.53;;;17.02;51.31
26839;BME280;40088;51.214;6.786;2023-03-17T16:55:58;100402.16;;;17.02;51.42
26839;BME280;40088;51.214;6.786;2023-03-17T17:05:58;100402.16;;;17.02;51.42
26839;BME280;40088;51.214;6.786;2023-03-17T17:15:59;100422.25;;;17.03;51.53
26839;BME280;40088;51.214;6.786;2023-03-17T17:26:00;100426.94;;;17.02;51.23
26839;BME280;40088;51.214;6.786;2023-03-17T17:36:02;100451.28;;;17.05;51.49
26839;BME280;40088;51.214;6.786;2023-03-17T17:46:08;100436.66;;;17.05;51.54
26839;BME280;40088;51.214;6.786;2023-03-17T17:56:14;100402.78;;;17.04;51.35
26839;BME280;40088;51.214;6.786;2023-03-17T18:06:14;100460.59;;;17.04;51.59
26839;BME280;40088;51.214;6.786;2023-03-17T18:16:18;100499.13;;;17.04;51.48
26839;BME280;40088;51.214;6.786;2023-03-17T18:26:18;100471.41;;;17.06;51.51
26839;BME280;40088;51.214;6.786;2023-03-17T18:36:19;100496.38;;;17.04;51.66
26839;BME280;40088;51.214;6.786;2023-03-17T18:46:20;100489.81;;;17.05;51.50
26839;BME280;40088;51.214;6.786;2023-03-17T18:56:21;100501.88;;;17.04;51.60
26839;BME280;40088;51.214;6.786;2023-03-17T19:06:23;100499.13;;;17.04;51.61
26839;BME280;40088;51.214;6.786;2023-03-17T19:16:23;100483.47;;;17.05;51.66
26839;BME280;40088;51.214;6.786;2023-03-17T19:26:27;100485.19;;;17.06;51.64
26839;BME280;40088;51.214;6.786;2023-03-17T19:36:33;100478.78;;;17.05;51.71
26839;BME280;40088;51.214;6.786;2023-03-17T19:46:35;100480.69;;;17.05;51.79
26839;BME280;40088;51.214;6.786;2023-03-17T19:56:36;100488.13;;;17.04;51.48
26839;BME280;40088;51.214;6.786;2023-03-17T20:06:37;100503.56;;;17.05;51.84
26839;BME280;40088;51.214;6.786;2023-03-17T20:16:37;100513.75;;;17.05;51.81
26839;BME280;40088;51.214;6.786;2023-03-17T20:26:38;100529.22;;;17.06;51.84
26839;BME280;40088;51.214;6.786;2023-03-17T20:36:38;100510.81;;;17.06;51.77
26839;BME280;40088;51.214;6.786;2023-03-17T20:46:41;100542.13;;;17.05;51.79
26839;BME280;40088;51.214;6.786;2023-03-17T20:56:41;100545.75;;;17.06;51.70
26839;BME280;40088;51.214;6.786;2023-03-17T21:06:43;100540.25;;;17.06;52.01
26839;BME280;40088;51.214;6.786;2023-03-17T21:16:43;100545.53;;;17.07;51.81
26839;BME280;40088;51.214;6.786;2023-03-17T21:26:46;100536.44;;;17.07;51.95
26839;BME280;40088;51.214;6.786;2023-03-17T21:36:46;100529.88;;;17.08;51.94
26839;BME280;40088;51.214;6.786;2023-03-17T21:46:47;100530.06;;;17.06;52.11
26839;BME280;40088;51.214;6.786;2023-03-17T21:56:48;100526.25;;;17.07;52.03
26839;BME280;40088;51.214;6.786;2023-03-17T22:06:50;100524.56;;;17.06;52.03
26839;BME280;40088;51.214;6.786;2023-03-17T22:16:51;100540.66;;;17.09;52.06
26839;BME280;40088;51.214;6.786;2023-03-17T22:26:52;100561.22;;;17.07;52.25
26839;BME280;40088;51.214;6.786;2023-03-17T22:36:52;100563.09;;;17.06;52.25
26839;BME280;40088;51.214;6.786;2023-03-17T22:46:52;100559.31;;;17.07;52.23
26839;BME280;40088;51.214;6.786;2023-03-17T22:56:53;100565.66;;;17.08;52.17
26839;BME280;40088;51.214;6.786;2023-03-17T23:06:53;100577.31;;;17.10;52.31
26839;BME280;40088;51.214;6.786;2023-03-17T23:16:53;100578.56;;;17.07;52.10
26839;BME280;40088;51.214;6.786;2023-03-17T23:26:54;100576.44;;;17.09;52.12
26839;BME280;40088;51.214;6.786;2023-03-17T23:36:54;100582.38;;;17.06;52.08
26839;BME280;40088;51.214;6.786;2023-03-17T23:46:55;100586.63;;;17.09;52.25
26839;BME280;40088;51.214;6.786;2023-03-17T23:56:56;100585.13;;;17.06;52.29
